Pagrindinis puslapis
METAR-TAF:

METAR-TAF

Oro uostai :

Balikesyras, Turkija

platuma: 39-37N, ilguma: 027-55E, Aukštis: 101 m

Dabartinis oras

Ataskaita buvo paskelbta 1 valandą ir 19 minutes, ne 20:50 UTC
Vėjas 6 kt iš Šiaurės/Šiaurės Rytų, svyruoja nuo Šiaurės ir Šiaurės Rytų
Temperatūra 15°C
Drėgmė 77%
Slėgis 1018 hPa
Matomumas 10 km arba daugiau
Mažai debesys ne aukštis 3500 ft
Išsisklaidę debesys ne aukštis 10000 ft

METAR: LTBF 082050Z 02006KT 350V050 9999 FEW035 SCT100 15/11 Q1018 NOSIG

Laikas: 01:09 (22:09 UTC)

Prognozė

Ataskaita buvo paskelbta 2 valandos ir 29 minutes, ne 19:40 UTC
Prognozė galioja nuo 08 metu 21 UTC su 09 metu 06 UTC
Vėjas 8 kt iš Šiaurės
Matomumas 10 km arba daugiau
Mažai debesys ne aukštis 3500 ft

TAF: LTBF 081940Z 0821/0906 01008KT 9999 FEW035

Orai ataskaitas ir orų prognozės (METAR, TAF).

turimą stotys yra geltonos ir raudonos taškus žemėlapyje.

Perkelti pele per norėdami pamatyti stoties vardą.

Tada spustelėkite, norėdami matyti oro stebėjimo ir prognozės.

Norėdami pakeisti žemėlapį: spustelėkite ant žalios mygtukų su juodo kryžiaus žemyn,; žalią mygtuką su brūkšneliu, jei norite nutolinti; arba žalių rodyklių gretimoms žemėlapius.


METAR-TAF: